Time;durP1;ratioP1;P1;durP2;ratioP2;P2;SDS_P1;SDS_P2;PMS_P1;PMS_P2;Temp;Humidity;BMP_temperature;BMP_pressure;BME280_temperature;BME280_humidity;BME280_pressure;Samples;Min_cycle;Max_cycle;Signal;HPM_P1;HPM_P2
2023/06/11 00:01:35;;;;;;;4.72;2.30;;;23.30;92.10;;;;;;4947079;28;20153;-67
2023/06/11 00:04:01;;;;;;;6.45;2.42;;;23.30;92.00;;;;;;4928058;29;20031;-66
2023/06/11 00:06:27;;;;;;;5.68;2.20;;;23.30;92.20;;;;;;4961185;28;20024;-67
2023/06/11 00:08:55;;;;;;;3.78;2.22;;;23.30;92.30;;;;;;4954894;28;20027;-68
2023/06/11 00:11:21;;;;;;;4.72;2.22;;;23.30;92.30;;;;;;4946951;28;20824;-67
2023/06/11 00:13:49;;;;;;;5.60;2.58;;;23.20;92.50;;;;;;4968220;28;20031;-67
2023/06/11 00:16:15;;;;;;;3.72;2.20;;;23.30;92.70;;;;;;4947063;28;20140;-67
2023/06/11 00:18:42;;;;;;;3.15;1.95;;;23.20;92.90;;;;;;4948348;28;20143;-67
2023/06/11 00:21:12;;;;;;;5.65;1.98;;;23.20;93.00;;;;;;4964233;28;20386;-67
2023/06/11 00:23:38;;;;;;;3.42;2.13;;;23.20;93.30;;;;;;4950722;28;20114;-67
2023/06/11 00:26:08;;;;;;;3.22;2.08;;;23.20;93.40;;;;;;4963560;28;20111;-68
2023/06/11 00:28:34;;;;;;;4.10;1.85;;;23.10;93.70;;;;;;4950335;29;20058;-68
2023/06/11 00:31:01;;;;;;;3.33;2.10;;;23.10;93.60;;;;;;4946984;28;20439;-68
2023/06/11 00:33:27;;;;;;;4.03;1.95;;;23.10;93.60;;;;;;4951601;28;20050;-68
2023/06/11 00:35:53;;;;;;;3.38;2.05;;;23.10;93.70;;;;;;4945658;28;20034;-68
2023/06/11 00:38:20;;;;;;;3.92;1.92;;;23.10;93.60;;;;;;4952499;28;20031;-68
2023/06/11 00:40:49;;;;;;;3.58;2.15;;;23.00;93.80;;;;;;4944991;28;20070;-68
2023/06/11 00:43:21;;;;;;;4.10;2.50;;;22.90;93.70;;;;;;4953716;28;20031;-68
2023/06/11 00:45:50;;;;;;;3.30;1.90;;;22.90;93.70;;;;;;4945548;28;20034;-67
2023/06/11 00:48:20;;;;;;;3.80;2.13;;;22.90;93.60;;;;;;4970088;28;20431;-68
2023/06/11 00:50:51;;;;;;;3.63;1.95;;;22.90;93.50;;;;;;4945050;28;20039;-67
2023/06/11 00:53:19;;;;;;;2.88;2.00;;;22.90;93.40;;;;;;4969996;28;20371;-67
2023/06/11 00:55:46;;;;;;;4.47;2.33;;;22.80;93.40;;;;;;4944550;28;20031;-67
2023/06/11 00:58:14;;;;;;;3.40;2.10;;;22.70;93.50;;;;;;4953418;28;20113;-68
2023/06/11 01:00:47;;;;;;;3.70;2.30;;;22.70;93.70;;;;;;4954405;28;20048;-68
2023/06/11 01:03:18;;;;;;;2.97;1.90;;;22.80;93.60;;;;;;4953014;28;20046;-68
2023/06/11 01:06:02;;;;;;;5.45;2.05;;;22.70;93.80;;;;;;4950432;28;20031;-68
2023/06/11 01:08:31;;;;;;;4.07;1.80;;;22.60;94.00;;;;;;4936935;28;20117;-68
2023/06/11 01:10:59;;;;;;;3.25;1.70;;;22.60;94.10;;;;;;4942635;28;20506;-68
2023/06/11 01:13:26;;;;;;;4.35;1.73;;;22.60;94.20;;;;;;4968565;28;20050;-68
2023/06/11 01:16:00;;;;;;;4.00;1.38;;;22.60;94.20;;;;;;4949889;28;20073;-68
2023/06/11 01:18:33;;;;;;;4.15;1.60;;;22.60;94.30;;;;;;4935048;29;20479;-68
2023/06/11 01:21:13;;;;;;;3.30;1.90;;;22.60;94.70;;;;;;4946293;28;20026;-68
2023/06/11 01:24:18;;;;;;;3.90;1.90;;;22.50;94.60;;;;;;4948698;28;20023;-69
2023/06/11 01:27:22;;;;;;;3.63;2.08;;;22.50;94.70;;;;;;4963378;28;20133;-69
2023/06/11 01:29:49;;;;;;;5.47;2.35;;;22.40;94.60;;;;;;4947685;28;20037;-69
2023/06/11 01:32:18;;;;;;;5.35;1.98;;;22.30;94.70;;;;;;4948078;28;20105;-69
2023/06/11 01:34:44;;;;;;;3.67;1.80;;;22.30;94.80;;;;;;4965571;28;20038;-69
2023/06/11 01:37:11;;;;;;;3.90;2.35;;;22.30;94.80;;;;;;4966949;28;20165;-69
2023/06/11 01:39:37;;;;;;;3.22;1.95;;;22.30;94.90;;;;;;4970469;28;20027;-69
2023/06/11 01:42:05;;;;;;;3.00;2.30;;;22.30;94.80;;;;;;4951038;29;20038;-69
2023/06/11 01:44:32;;;;;;;7.35;1.90;;;22.20;94.90;;;;;;4945002;28;20015;-69
2023/06/11 01:46:58;;;;;;;3.03;1.75;;;22.10;95.20;;;;;;4966785;28;20038;-69
2023/06/11 01:49:24;;;;;;;3.55;1.98;;;22.10;95.50;;;;;;4950926;28;20038;-69
2023/06/11 01:51:50;;;;;;;2.85;1.95;;;22.00;95.50;;;;;;4966925;28;20026;-68
2023/06/11 01:54:17;;;;;;;3.28;1.67;;;22.10;95.60;;;;;;4970415;28;20030;-69
2023/06/11 01:56:43;;;;;;;3.72;2.03;;;22.00;95.80;;;;;;4933933;28;20034;-69
2023/06/11 01:59:09;;;;;;;3.15;1.90;;;22.00;95.90;;;;;;4970224;28;20649;-69
2023/06/11 02:01:36;;;;;;;3.17;1.83;;;22.00;96.10;;;;;;4949327;28;20114;-69
2023/06/11 02:04:03;;;;;;;3.97;2.25;;;21.90;96.20;;;;;;4969896;28;20049;-68
2023/06/11 02:06:30;;;;;;;5.85;2.13;;;21.90;96.30;;;;;;4966550;28;20042;-68
2023/06/11 02:08:55;;;;;;;6.30;2.35;;;21.90;96.50;;;;;;4970260;28;20058;-68
2023/06/11 02:11:21;;;;;;;5.10;2.00;;;22.00;96.80;;;;;;4966841;28;20067;-68
2023/06/11 02:13:47;;;;;;;4.07;2.22;;;21.80;97.00;;;;;;4970301;28;20031;-68
2023/06/11 02:16:13;;;;;;;3.42;2.30;;;21.70;97.60;;;;;;4965921;28;20031;-68
2023/06/11 02:18:38;;;;;;;3.17;1.70;;;21.40;98.10;;;;;;4954697;28;20094;-68
2023/06/11 02:21:04;;;;;;;3.42;1.98;;;21.50;98.60;;;;;;4966457;28;20162;-68
2023/06/11 02:23:30;;;;;;;4.18;2.20;;;21.40;99.00;;;;;;4970471;28;20114;-68
2023/06/11 02:25:56;;;;;;;8.70;2.38;;;21.40;99.30;;;;;;4963756;28;20060;-68
2023/06/11 02:28:21;;;;;;;3.53;2.10;;;21.30;99.60;;;;;;4971408;28;20062;-68
2023/06/11 02:30:47;;;;;;;3.22;1.80;;;21.40;99.70;;;;;;4964566;28;20035;-68
2023/06/11 02:33:13;;;;;;;8.25;2.15;;;21.50;99.40;;;;;;4972692;28;20027;-68
2023/06/11 02:35:39;;;;;;;4.32;2.42;;;21.40;99.70;;;;;;4962924;28;20139;-68
2023/06/11 02:38:05;;;;;;;3.55;1.88;;;21.40;99.70;;;;;;4974190;28;20034;-69
2023/06/11 02:40:30;;;;;;;3.35;1.95;;;21.40;99.90;;;;;;4962188;28;20031;-68
2023/06/11 02:42:56;;;;;;;4.43;2.28;;;21.40;99.90;;;;;;4956207;28;20038;-68
2023/06/11 02:45:22;;;;;;;4.28;2.20;;;21.40;99.90;;;;;;4943311;29;20055;-68
2023/06/11 02:47:47;;;;;;;6.28;2.35;;;21.30;99.90;;;;;;4954430;28;20364;-69
2023/06/11 02:50:13;;;;;;;4.75;2.83;;;21.20;99.90;;;;;;4964189;28;20419;-69
2023/06/11 02:52:39;;;;;;;3.55;2.00;;;21.40;99.90;;;;;;4953713;28;20110;-69
2023/06/11 02:55:05;;;;;;;4.40;2.53;;;21.50;99.70;;;;;;4945286;29;20086;-69
2023/06/11 02:57:31;;;;;;;5.10;2.35;;;21.50;99.60;;;;;;4969929;28;20030;-68
2023/06/11 02:59:56;;;;;;;4.47;2.40;;;21.50;99.70;;;;;;4949446;28;20031;-68
2023/06/11 03:02:22;;;;;;;5.05;2.83;;;21.50;99.70;;;;;;4983823;23;20031;31
2023/06/11 03:04:48;;;;;;;3.83;1.92;;;21.50;99.90;;;;;;4954580;28;20416;-67
2023/06/11 03:07:13;;;;;;;7.97;2.60;;;21.50;99.90;;;;;;4929004;29;20043;-67
2023/06/11 03:09:39;;;;;;;3.40;1.92;;;21.40;99.90;;;;;;4961720;28;20082;-68
2023/06/11 03:12:06;;;;;;;3.70;2.25;;;21.40;99.90;;;;;;4973515;28;20034;-67
2023/06/11 03:14:32;;;;;;;3.60;2.47;;;21.40;99.90;;;;;;4979434;28;20129;-67
2023/06/11 03:16:58;;;;;;;5.72;2.75;;;21.30;99.90;;;;;;4992292;28;20106;-66
2023/06/11 03:19:24;;;;;;;4.40;2.25;;;21.30;99.90;;;;;;4983334;28;20664;-67
2023/06/11 03:21:49;;;;;;;3.80;2.38;;;21.20;99.90;;;;;;4991265;28;20038;-66
2023/06/11 03:24:15;;;;;;;4.68;2.50;;;21.10;99.90;;;;;;4965507;28;20031;-66
2023/06/11 03:26:41;;;;;;;4.50;2.70;;;21.10;99.90;;;;;;4972829;28;20070;-66
2023/06/11 03:29:07;;;;;;;5.05;2.83;;;21.10;99.90;;;;;;4985250;28;20050;-67
2023/06/11 03:31:32;;;;;;;3.22;2.22;;;20.90;99.90;;;;;;4988359;28;20038;-67
2023/06/11 03:33:58;;;;;;;4.85;2.58;;;20.90;99.90;;;;;;4986238;28;20036;-66
2023/06/11 03:36:24;;;;;;;4.78;2.63;;;20.80;99.90;;;;;;4987454;28;20069;-68
2023/06/11 03:38:50;;;;;;;4.78;2.58;;;20.90;99.90;;;;;;4987479;28;20034;-68
2023/06/11 03:41:16;;;;;;;3.95;2.40;;;21.00;99.90;;;;;;4986500;28;20113;-68
2023/06/11 03:43:42;;;;;;;4.38;2.53;;;20.90;99.90;;;;;;4969683;28;20188;-68
2023/06/11 03:46:07;;;;;;;5.13;3.08;;;20.90;99.90;;;;;;4984951;28;20092;-68
2023/06/11 03:48:33;;;;;;;4.82;3.08;;;20.90;99.90;;;;;;4989226;28;20030;-68
2023/06/11 03:50:59;;;;;;;4.63;2.58;;;20.80;99.90;;;;;;4984377;28;20124;-68
2023/06/11 03:53:25;;;;;;;6.63;2.65;;;20.90;99.90;;;;;;4970717;28;20030;-68
2023/06/11 03:55:51;;;;;;;6.18;2.65;;;20.80;99.90;;;;;;4966446;28;20022;-68
2023/06/11 03:58:16;;;;;;;5.97;2.67;;;20.80;99.90;;;;;;4988973;28;20588;-68
2023/06/11 04:00:42;;;;;;;5.07;2.83;;;20.80;99.90;;;;;;4983115;28;20033;-68
2023/06/11 04:03:08;;;;;;;5.00;2.85;;;20.80;99.90;;;;;;4970409;28;20088;-68
2023/06/11 04:05:36;;;;;;;4.93;2.65;;;20.80;99.90;;;;;;4983464;28;20030;-68
2023/06/11 04:08:03;;;;;;;4.30;2.80;;;20.70;99.90;;;;;;4988915;28;20027;-68
2023/06/11 04:10:29;;;;;;;5.38;2.80;;;20.80;99.90;;;;;;4983986;28;20080;-68
2023/06/11 04:12:55;;;;;;;4.50;2.78;;;20.70;99.90;;;;;;4970526;28;20043;-68
2023/06/11 04:15:21;;;;;;;4.15;2.85;;;20.70;99.90;;;;;;4956544;28;20027;-68
2023/06/11 04:17:47;;;;;;;3.45;2.40;;;20.70;99.90;;;;;;4973470;28;20105;-68
2023/06/11 04:20:12;;;;;;;6.05;2.33;;;20.70;99.90;;;;;;4983360;28;20106;-68
2023/06/11 04:22:38;;;;;;;4.57;2.95;;;20.60;99.90;;;;;;4988510;28;20521;-68
2023/06/11 04:25:06;;;;;;;4.47;2.72;;;20.60;99.90;;;;;;4983119;28;20036;-68
2023/06/11 04:27:33;;;;;;;7.85;3.00;;;20.70;99.90;;;;;;4955622;28;20027;-68
2023/06/11 04:30:03;;;;;;;3.53;2.00;;;20.70;99.90;;;;;;4965953;28;20022;-68
2023/06/11 04:32:34;;;;;;;5.57;2.45;;;20.70;99.90;;;;;;4989416;28;20371;-68
2023/06/11 04:35:02;;;;;;;3.75;2.55;;;20.80;99.90;;;;;;4955327;28;20027;-68
2023/06/11 04:37:29;;;;;;;5.15;2.60;;;20.90;99.90;;;;;;4971856;28;20077;-68
2023/06/11 04:39:56;;;;;;;6.18;2.20;;;21.00;99.90;;;;;;4981239;28;20038;-68
2023/06/11 04:42:24;;;;;;;5.10;2.38;;;21.00;99.90;;;;;;4990383;28;20057;-68
2023/06/11 04:44:50;;;;;;;4.43;2.80;;;21.00;99.90;;;;;;4970798;28;20027;-68
2023/06/11 04:47:22;;;;;;;4.13;2.45;;;21.10;99.90;;;;;;4991425;28;20093;-68
2023/06/11 04:49:51;;;;;;;4.75;2.75;;;21.20;99.90;;;;;;4964467;28;20030;-68
2023/06/11 04:52:17;;;;;;;5.72;2.95;;;21.30;99.90;;;;;;4990941;28;20057;-68
2023/06/11 04:54:45;;;;;;;3.72;2.45;;;21.40;99.90;;;;;;4961148;28;20502;-68
2023/06/11 04:57:13;;;;;;;4.35;2.20;;;21.40;99.90;;;;;;4974068;28;20030;-68
2023/06/11 04:59:39;;;;;;;5.20;2.65;;;21.60;99.90;;;;;;4980015;28;20038;-68
2023/06/11 05:02:05;;;;;;;4.80;2.50;;;21.40;99.90;;;;;;4973731;28;20018;-68
2023/06/11 05:04:31;;;;;;;4.35;2.70;;;21.40;99.90;;;;;;4980231;28;20038;-68
2023/06/11 05:07:00;;;;;;;7.80;3.33;;;21.30;99.90;;;;;;4990634;28;20026;-68
2023/06/11 05:09:25;;;;;;;6.10;2.80;;;21.30;99.90;;;;;;4981338;28;20023;-68
2023/06/11 05:11:51;;;;;;;4.70;2.58;;;21.30;99.90;;;;;;4992083;28;20482;-68
2023/06/11 05:14:17;;;;;;;4.47;2.53;;;21.40;99.90;;;;;;4985168;28;20435;-68
2023/06/11 05:16:42;;;;;;;5.25;2.70;;;21.30;99.90;;;;;;4973323;28;20034;-67
2023/06/11 05:19:08;;;;;;;6.00;2.60;;;21.30;99.90;;;;;;4982590;28;20042;-67
2023/06/11 05:21:34;;;;;;;4.82;2.72;;;21.50;99.90;;;;;;4991459;28;20109;-58
2023/06/11 05:24:07;;;;;;;4.68;2.58;;;21.60;99.90;;;;;;4988344;28;20094;-58
2023/06/11 05:26:34;;;;;;;7.45;2.58;;;21.60;99.90;;;;;;4968248;28;20026;-58
2023/06/11 05:29:01;;;;;;;4.72;2.83;;;21.60;99.90;;;;;;4972457;28;20049;-57
2023/06/11 05:31:29;;;;;;;5.43;2.28;;;21.70;99.90;;;;;;4979792;28;20027;-60
2023/06/11 05:33:56;;;;;;;8.77;2.65;;;21.60;99.90;;;;;;4965449;28;20043;-57
2023/06/11 05:36:22;;;;;;;3.67;2.28;;;21.80;99.90;;;;;;4971982;28;20030;-59
2023/06/11 05:38:48;;;;;;;5.00;2.58;;;21.80;99.90;;;;;;4990138;28;20062;-58
2023/06/11 05:41:14;;;;;;;3.80;2.40;;;21.80;99.90;;;;;;4988344;28;20097;-60
2023/06/11 05:43:39;;;;;;;9.60;2.72;;;21.90;99.90;;;;;;4990829;28;20034;-59
2023/06/11 05:46:06;;;;;;;5.22;2.50;;;22.00;99.90;;;;;;4964806;28;20434;-60
2023/06/11 05:48:31;;;;;;;9.65;2.72;;;22.00;99.90;;;;;;4987726;28;20027;-57
2023/06/11 05:51:10;;;;;;;4.10;2.33;;;21.90;99.90;;;;;;4986090;28;20026;-59
2023/06/11 05:54:00;;;;;;;4.90;2.80;;;22.10;99.90;;;;;;4967357;28;20037;-58
2023/06/11 06:01:03;;;;;;;4.85;2.60;;;22.20;99.90;;;;;;4866770;29;20049;-54
2023/06/11 06:03:53;;;;;;;4.82;2.45;;;22.50;99.90;;;;;;4865462;29;20077;-54
2023/06/11 06:06:25;;;;;;;3.25;1.85;;;22.70;99.90;;;;;;4887012;29;20044;-53
2023/06/11 06:08:51;;;;;;;3.83;2.08;;;22.80;99.90;;;;;;4905727;29;20037;-54
2023/06/11 06:11:17;;;;;;;5.10;2.45;;;23.00;99.90;;;;;;4895401;29;20043;-54
2023/06/11 06:13:57;;;;;;;6.13;2.60;;;23.00;99.90;;;;;;4899356;29;20119;-53
2023/06/11 06:16:26;;;;;;;3.65;2.28;;;22.90;99.90;;;;;;4900367;29;20047;-67
2023/06/11 06:18:52;;;;;;;5.32;2.72;;;22.90;99.90;;;;;;4906592;29;20149;-68
2023/06/11 06:21:21;;;;;;;8.20;2.63;;;22.70;99.90;;;;;;4905497;29;20119;-68
2023/06/11 06:23:51;;;;;;;5.03;2.60;;;22.60;99.90;;;;;;4889936;29;20040;-68
2023/06/11 06:26:22;;;;;;;4.57;2.42;;;22.60;99.90;;;;;;4905403;29;20567;-66
2023/06/11 06:28:54;;;;;;;3.70;2.33;;;22.70;99.90;;;;;;4906210;29;20075;-66
2023/06/11 06:31:54;;;;;;;5.07;2.13;;;22.70;99.90;;;;;;4873777;29;20039;-66
2023/06/11 06:34:20;;;;;;;3.28;2.25;;;22.80;99.90;;;;;;4925849;28;20121;-66
2023/06/11 06:36:48;;;;;;;4.13;2.65;;;22.80;99.90;;;;;;4982895;28;20105;-66
2023/06/11 06:46:49;;;;;;;4.35;2.50;;;23.00;99.90;;;;;;4922982;29;20044;-68
2023/06/11 06:49:17;;;;;;;4.05;1.90;;;23.00;99.90;;;;;;4927229;29;20478;-67
2023/06/11 06:52:52;;;;;;;4.05;2.55;;;22.90;99.80;;;;;;4966925;28;20054;-68
2023/06/11 06:55:21;;;;;;;4.95;2.78;;;23.10;99.60;;;;;;4960541;28;20046;-67
2023/06/11 06:57:49;;;;;;;5.75;2.60;;;23.10;99.70;;;;;;4983325;28;20505;-68
2023/06/11 07:00:21;;;;;;;3.25;1.77;;;23.20;98.90;;;;;;4986668;28;20478;-68
2023/06/11 07:02:49;;;;;;;4.45;2.00;;;23.40;97.90;;;;;;4983343;28;20114;-68
2023/06/11 07:06:02;;;;;;;4.38;2.30;;;23.50;97.60;;;;;;4986208;28;20089;-67
2023/06/11 07:08:31;;;;;;;4.63;2.15;;;23.50;97.40;;;;;;4864305;29;20072;-68
2023/06/11 07:11:02;;;;;;;3.17;2.00;;;23.60;97.10;;;;;;4891686;29;20067;-67
2023/06/11 07:13:31;;;;;;;5.13;2.25;;;23.60;97.20;;;;;;4905580;29;20067;-68
2023/06/11 07:15:59;;;;;;;3.75;2.00;;;23.70;97.00;;;;;;4901240;29;20052;-68
2023/06/11 07:18:52;;;;;;;5.07;2.53;;;23.80;96.90;;;;;;4902311;29;20092;-68
2023/06/11 07:21:30;;;;;;;4.47;2.28;;;23.80;96.80;;;;;;4899870;29;20040;-68
2023/06/11 07:24:14;;;;;;;4.28;2.38;;;23.90;97.10;;;;;;4905298;29;20487;-68
2023/06/11 07:26:46;;;;;;;3.88;2.30;;;24.00;95.80;;;;;;4896352;29;20877;-68
2023/06/11 07:29:11;;;;;;;4.50;2.38;;;24.00;95.90;;;;;;4900907;29;20048;-67
2023/06/11 07:32:09;;;;;;;3.90;2.25;;;24.10;95.40;;;;;;4886088;29;20048;-67
2023/06/11 07:34:34;;;;;;;3.97;1.90;;;24.20;95.40;;;;;;4837070;29;20041;-67
2023/06/11 07:37:00;;;;;;;3.42;1.90;;;24.30;94.20;;;;;;4823440;29;20398;-68
2023/06/11 07:39:26;;;;;;;8.52;2.03;;;24.40;94.40;;;;;;4838324;29;20057;-68
2023/06/11 07:42:03;;;;;;;2.72;2.00;;;24.50;94.10;;;;;;4837931;29;20071;-68
2023/06/11 07:44:28;;;;;;;4.70;2.38;;;24.40;93.20;;;;;;4871277;28;20039;-67
2023/06/11 07:47:26;;;;;;;3.70;2.25;;;24.50;93.50;;;;;;4979901;28;20520;-68
2023/06/11 07:49:55;;;;;;;4.78;2.63;;;24.60;93.70;;;;;;4889308;29;20052;-67
2023/06/11 07:52:36;;;;;;;3.33;2.25;;;24.70;93.30;;;;;;4883154;29;20059;-68
2023/06/11 07:55:56;;;;;;;6.47;2.20;;;24.80;92.80;;;;;;4860217;29;20417;-68
2023/06/11 07:58:34;;;;;;;3.25;1.92;;;24.90;93.10;;;;;;4866219;29;20075;-68
2023/06/11 08:01:00;;;;;;;3.38;2.00;;;24.90;92.50;;;;;;4877839;29;20039;-68
2023/06/11 08:03:29;;;;;;;3.80;2.28;;;24.80;92.50;;;;;;4885582;29;20033;-68
2023/06/11 08:05:55;;;;;;;3.83;2.03;;;24.90;92.50;;;;;;4869296;29;20060;-65
2023/06/11 08:08:27;;;;;;;3.47;1.83;;;24.90;92.10;;;;;;4870440;29;20485;-68
2023/06/11 08:11:05;;;;;;;3.05;1.98;;;24.80;92.20;;;;;;4869288;29;20051;-68
2023/06/11 08:13:46;;;;;;;4.18;2.42;;;24.90;91.80;;;;;;4870278;29;20075;-68
2023/06/11 08:16:12;;;;;;;4.15;1.88;;;25.00;91.70;;;;;;4884697;29;20158;-68
2023/06/11 08:18:37;;;;;;;5.88;2.28;;;25.20;91.10;;;;;;4885843;29;20040;-68
2023/06/11 08:21:05;;;;;;;4.97;2.10;;;25.30;90.30;;;;;;4884527;29;20199;-68
2023/06/11 08:23:45;;;;;;;3.53;1.95;;;25.30;90.10;;;;;;4885432;29;20056;-67
2023/06/11 08:27:08;;;;;;;4.25;2.10;;;25.50;90.20;;;;;;4909120;28;20042;-68
2023/06/11 08:29:36;;;;;;;2.70;1.52;;;25.40;89.50;;;;;;4900567;29;20064;-68
2023/06/11 08:32:14;;;;;;;4.40;2.35;;;25.50;90.00;;;;;;4893712;29;20497;-68
2023/06/11 08:38:29;;;;;;;3.65;2.08;;;25.70;89.40;;;;;;4799096;29;20046;-67
2023/06/11 08:41:59;;;;;;;3.85;2.45;;;25.60;87.30;;;;;;4847322;29;20057;-68
2023/06/11 08:44:25;;;;;;;4.18;2.03;;;25.70;86.70;;;;;;4836105;29;20045;-68
2023/06/11 08:46:51;;;;;;;4.18;2.13;;;25.80;85.80;;;;;;4844537;29;20094;-68
2023/06/11 08:50:02;;;;;;;3.63;1.85;;;26.00;85.50;;;;;;4850574;29;20046;-67
2023/06/11 08:52:37;;;;;;;4.13;2.38;;;26.20;85.00;;;;;;4843908;29;20098;-68
2023/06/11 08:55:03;;;;;;;5.07;2.00;;;26.30;85.10;;;;;;4851024;29;20049;-68
2023/06/11 08:57:35;;;;;;;4.07;2.00;;;26.30;85.20;;;;;;4845288;29;20030;-68
2023/06/11 09:00:37;;;;;;;4.55;2.15;;;26.40;84.60;;;;;;4851705;29;20145;-68
2023/06/11 09:03:08;;;;;;;3.33;2.05;;;26.20;83.70;;;;;;4865877;23;20386;-64
2023/06/11 09:05:37;;;;;;;;;;;26.20;83.50;;;;;;4976808;28;20038;-64
2023/06/11 09:08:18;;;;;;;5.05;1.73;;;26.30;82.50;;;;;;4963457;28;20409;-64
2023/06/11 09:14:29;;;;;;;4.20;2.20;;;26.80;79.20;;;;;;4977223;28;20042;-65
2023/06/11 09:17:04;;;;;;;3.45;2.08;;;26.60;79.80;;;;;;4987928;28;20517;-64
2023/06/11 09:19:30;;;;;;;6.35;2.10;;;26.60;80.80;;;;;;4989933;28;20081;-64
2023/06/11 09:22:47;;;;;;;7.60;2.33;;;27.00;80.00;;;;;;4990915;28;20042;-64
2023/06/11 09:25:16;;;;;;;7.55;3.08;;;27.10;79.60;;;;;;4859815;29;20045;-64
2023/06/11 09:28:32;;;;;;;3.53;1.88;;;27.20;78.40;;;;;;4982389;28;20037;-64
2023/06/11 09:31:06;;;;;;;2.22;1.30;;;27.30;71.80;;;;;;4982234;28;20038;-64
2023/06/11 09:33:38;;;;;;;6.00;3.13;;;27.60;70.20;;;;;;4968487;28;20034;-64
2023/06/11 09:36:29;;;;;;;3.70;1.98;;;27.70;69.20;;;;;;4975702;28;20664;-64
2023/06/11 09:39:04;;;;;;;4.30;1.80;;;27.80;68.60;;;;;;4990112;28;20125;-63
2023/06/11 09:41:32;;;;;;;6.50;2.15;;;27.80;68.40;;;;;;4969478;28;20037;-64
2023/06/11 09:44:00;;;;;;;3.13;1.92;;;27.90;68.40;;;;;;4972812;28;20046;-65
2023/06/11 09:46:46;;;;;;;3.67;1.95;;;28.00;67.60;;;;;;4968324;28;20042;-65
2023/06/11 09:49:46;;;;;;;3.13;1.90;;;28.00;67.70;;;;;;4983310;28;20036;-65
2023/06/11 09:54:53;;;;;;;3.95;1.50;;;28.50;66.20;;;;;;5782954;23;20053;-69
2023/06/11 09:57:21;;;;;;;5.30;1.70;;;28.40;66.00;;;;;;5006638;28;20084;-68
2023/06/11 09:59:48;;;;;;;3.83;1.70;;;28.60;66.10;;;;;;4994967;28;20033;-68
2023/06/11 10:02:14;;;;;;;6.60;2.08;;;28.80;65.70;;;;;;4995803;28;20037;-68
2023/06/11 10:04:41;;;;;;;5.57;1.85;;;28.70;65.00;;;;;;5008941;28;20025;-68
2023/06/11 10:07:10;;;;;;;2.50;1.80;;;28.70;64.60;;;;;;4975558;28;20038;-68
2023/06/11 10:09:38;;;;;;;5.63;1.90;;;28.80;64.70;;;;;;4976509;28;20033;-68
2023/06/11 10:12:06;;;;;;;4.63;1.88;;;28.70;64.00;;;;;;4976904;28;20026;-68
2023/06/11 10:14:32;;;;;;;17.92;2.08;;;28.80;64.70;;;;;;4975691;28;20050;-66
2023/06/11 10:17:02;;;;;;;2.55;1.75;;;28.90;64.70;;;;;;4965392;23;20423;-67
2023/06/11 10:19:36;;;;;;;4.13;2.17;;;28.70;64.70;;;;;;4940930;28;20504;-65
2023/06/11 10:22:02;;;;;;;4.60;1.70;;;29.00;65.60;;;;;;4943477;28;20366;-67
2023/06/11 10:24:28;;;;;;;4.55;2.10;;;29.10;65.10;;;;;;4963611;28;20038;-67
2023/06/11 10:27:07;;;;;;;3.20;1.73;;;28.90;65.20;;;;;;4944308;28;20037;-65
2023/06/11 10:29:46;;;;;;;11.73;2.10;;;28.90;66.20;;;;;;4962066;28;20141;-65
2023/06/11 10:32:20;;;;;;;5.13;2.20;;;28.90;64.60;;;;;;4955449;28;20043;-67
2023/06/11 10:35:00;;;;;;;7.85;2.38;;;28.70;65.80;;;;;;4968632;28;20510;-68
2023/06/11 10:37:28;;;;;;;4.07;2.03;;;28.90;64.00;;;;;;4954398;28;20042;-67
2023/06/11 10:39:58;;;;;;;4.78;2.20;;;29.20;64.50;;;;;;4970438;28;20050;-68
2023/06/11 10:42:33;;;;;;;5.13;2.20;;;29.30;64.10;;;;;;4954396;28;20023;-68
2023/06/11 10:45:05;;;;;;;5.00;2.03;;;29.40;63.60;;;;;;4973369;28;20035;-67
2023/06/11 10:47:49;;;;;;;4.20;1.98;;;29.60;63.50;;;;;;4949366;28;20014;-68
2023/06/11 10:50:30;;;;;;;4.90;2.03;;;29.60;62.90;;;;;;4978369;28;20126;-68
2023/06/11 10:53:01;;;;;;;4.82;2.13;;;29.70;62.40;;;;;;4960440;28;20031;-66
2023/06/11 10:55:29;;;;;;;2.97;1.80;;;29.70;64.10;;;;;;4961145;28;20501;-68
2023/06/11 10:58:00;;;;;;;4.22;1.90;;;30.10;63.20;;;;;;4961390;28;20037;-68
2023/06/11 11:00:32;;;;;;;4.55;2.15;;;30.10;62.90;;;;;;4961516;28;20022;-68
2023/06/11 11:02:59;;;;;;;3.20;1.65;;;30.40;61.60;;;;;;4964611;28;20039;-67
2023/06/11 11:05:25;;;;;;;3.05;1.80;;;30.50;61.20;;;;;;4939610;28;20109;-69
2023/06/11 11:07:55;;;;;;;5.35;1.85;;;30.00;60.20;;;;;;4929043;28;20036;-67
2023/06/11 11:10:26;;;;;;;3.67;2.10;;;30.30;60.90;;;;;;4933263;28;20035;-68
2023/06/11 11:12:56;;;;;;;4.78;1.75;;;30.30;60.60;;;;;;4935170;28;20588;-67
2023/06/11 11:15:22;;;;;;;3.08;1.67;;;30.20;60.90;;;;;;4939093;28;20082;-68
2023/06/11 11:17:50;;;;;;;5.55;1.58;;;30.40;61.60;;;;;;4960196;28;20442;-68
2023/06/11 11:20:19;;;;;;;2.92;1.80;;;30.70;60.80;;;;;;4939604;28;20031;-69
2023/06/11 11:22:54;;;;;;;4.05;1.88;;;31.10;60.90;;;;;;4935156;28;20046;-68
2023/06/11 11:25:30;;;;;;;3.20;1.70;;;31.60;59.60;;;;;;4931505;29;20118;-69
2023/06/11 11:27:57;;;;;;;2.67;1.70;;;30.60;58.10;;;;;;4932411;28;20038;-67
2023/06/11 11:30:28;;;;;;;3.47;2.05;;;30.20;58.70;;;;;;4954699;28;20027;-68
2023/06/11 11:32:59;;;;;;;3.90;1.98;;;30.40;58.90;;;;;;4944703;28;20142;-68
2023/06/11 11:35:26;;;;;;;3.40;1.73;;;30.40;58.80;;;;;;4937253;28;20397;-68
2023/06/11 11:37:54;;;;;;;2.45;1.52;;;30.40;59.70;;;;;;4942746;28;20067;-69
2023/06/11 11:40:23;;;;;;;4.70;2.15;;;30.60;60.90;;;;;;4961199;28;20446;-68
2023/06/11 11:42:55;;;;;;;2.40;1.63;;;31.00;58.70;;;;;;4942760;28;20031;-68
2023/06/11 11:45:30;;;;;;;3.78;1.85;;;31.20;58.80;;;;;;4940735;28;20086;-68
2023/06/11 11:47:55;;;;;;;4.72;1.75;;;31.30;58.50;;;;;;4932577;28;20081;-68
2023/06/11 11:50:27;;;;;;;16.17;2.25;;;31.20;56.50;;;;;;4944620;28;20069;-68
2023/06/11 11:53:12;;;;;;;2.63;1.40;;;30.90;57.20;;;;;;4937971;28;20035;-68
2023/06/11 11:55:45;;;;;;;3.30;1.52;;;31.10;57.40;;;;;;4941169;28;20102;-69
2023/06/11 11:58:13;;;;;;;6.15;2.55;;;31.50;56.20;;;;;;4956237;28;20055;-68
2023/06/11 12:00:56;;;;;;;3.53;1.65;;;31.60;54.70;;;;;;4958279;28;20250;-68
2023/06/11 12:03:23;;;;;;;3.70;1.88;;;31.70;54.20;;;;;;4940986;29;20023;-68
2023/06/11 12:06:07;;;;;;;2.35;1.55;;;31.60;53.90;;;;;;4941924;28;20019;-68
2023/06/11 12:08:35;;;;;;;3.55;1.85;;;31.70;53.80;;;;;;4955887;28;20026;-68
2023/06/11 12:11:06;;;;;;;7.05;1.75;;;31.70;53.80;;;;;;4955918;28;20030;-68
2023/06/11 12:13:32;;;;;;;4.00;1.80;;;31.60;54.20;;;;;;4936778;28;20495;-67
2023/06/11 12:15:59;;;;;;;4.38;1.65;;;31.90;54.20;;;;;;4925252;28;20126;-68
2023/06/11 12:18:25;;;;;;;5.95;1.70;;;31.70;53.10;;;;;;4959023;28;20050;-68
2023/06/11 12:20:51;;;;;;;2.72;1.60;;;31.70;53.00;;;;;;4952310;28;20031;-68
2023/06/11 12:23:19;;;;;;;3.08;1.40;;;31.60;52.80;;;;;;4943936;28;20031;-69
2023/06/11 12:25:45;;;;;;;3.08;1.98;;;31.70;52.60;;;;;;4952779;28;20043;-69
2023/06/11 12:28:11;;;;;;;3.67;1.85;;;31.70;52.30;;;;;;4934953;28;20777;-67
2023/06/11 12:30:36;;;;;;;5.35;1.50;;;32.00;51.70;;;;;;4958246;28;20031;-68
2023/06/11 12:33:02;;;;;;;3.70;1.73;;;32.00;51.00;;;;;;4946584;28;20159;-68
2023/06/11 12:35:32;;;;;;;6.25;1.77;;;32.00;52.00;;;;;;4940265;28;20031;-67
2023/06/11 12:37:58;;;;;;;2.53;1.50;;;32.40;50.80;;;;;;4930897;28;20491;-68
2023/06/11 12:40:24;;;;;;;3.40;1.63;;;32.00;51.10;;;;;;4956470;28;20636;-69
2023/06/11 12:42:56;;;;;;;4.10;1.92;;;32.30;50.60;;;;;;4954523;28;20100;-68
2023/06/11 12:45:30;;;;;;;3.83;1.42;;;32.20;50.50;;;;;;4935387;29;20027;-68
2023/06/11 12:47:59;;;;;;;3.30;1.70;;;32.60;50.80;;;;;;4931922;29;20629;-67
2023/06/11 12:50:25;;;;;;;3.80;1.90;;;32.60;50.20;;;;;;4940535;29;20083;-67
2023/06/11 12:52:52;;;;;;;3.38;1.88;;;32.80;50.40;;;;;;4950280;29;20055;-68
2023/06/11 12:55:18;;;;;;;3.15;1.75;;;32.80;49.80;;;;;;4932909;29;20039;-68
2023/06/11 12:57:44;;;;;;;5.90;2.25;;;32.50;49.70;;;;;;4931197;29;20031;-68
2023/06/11 13:00:11;;;;;;;4.40;1.85;;;33.10;49.60;;;;;;4952382;29;20106;-69
2023/06/11 13:02:38;;;;;;;6.32;1.65;;;33.10;50.10;;;;;;4934373;29;20038;-68
2023/06/11 13:05:05;;;;;;;2.58;1.50;;;33.20;50.40;;;;;;4950032;29;20487;-68
2023/06/11 13:07:31;;;;;;;5.65;2.17;;;33.40;49.30;;;;;;4931128;29;20032;-69
2023/06/11 13:09:57;;;;;;;4.03;2.03;;;33.40;49.50;;;;;;4944155;29;20078;-68
2023/06/11 13:12:27;;;;;;;9.90;1.73;;;33.00;49.80;;;;;;4928215;29;20062;-68
2023/06/11 13:14:53;;;;;;;13.38;2.15;;;33.10;49.70;;;;;;4914105;29;20039;-68
2023/06/11 13:17:20;;;;;;;3.17;1.83;;;33.10;49.70;;;;;;4952376;29;20047;-68
2023/06/11 13:19:46;;;;;;;3.88;2.03;;;33.00;50.50;;;;;;4929494;29;20035;-67
2023/06/11 13:22:12;;;;;;;2.88;1.58;;;33.70;48.90;;;;;;4933868;29;20051;-66
2023/06/11 13:24:39;;;;;;;3.92;2.25;;;34.00;48.50;;;;;;4934241;29;20066;-66
2023/06/11 13:27:08;;;;;;;3.95;1.80;;;33.70;49.10;;;;;;4951932;29;20027;-67
2023/06/11 13:29:34;;;;;;;1.92;1.20;;;34.40;48.70;;;;;;4951750;29;20090;-67